Terminal Aerodrome Forecast
Issued by NWS Wakefield, VA

Home | Current Version | Previous Version | Text Only | Print | Product List | Glossary On
Versions: 1 2 3 4 5 6 7 8 9 10 11 12 13 14 15 16
000
FTUS41 KAKQ 281410 AAA
TAFORF
TAF AMD
KORF 281410Z 2814/2912 21008KT P6SM VCSH SCT020 BKN100
     FM281800 22008KT 4SM RA BR BKN070
     FM282300 22008KT 3SM RA BR BKN030 OVC050
     FM290800 25008KT 3SM RA BR OVC030=

USA.gov is the U.S. government's official web portal to all federal, state and local government web resources and services.